sensor_id;sensor_type;location;lat;lon;timestamp;pressure;altitude;pressure_sealevel;temperature;humidity
16613;BME280;8419;52.358;9.752;2023-05-23T00:02:17;100671.00;;;26.17;45.78
16613;BME280;8419;52.358;9.752;2023-05-23T00:05:04;100675.00;;;26.38;45.33
16613;BME280;8419;52.358;9.752;2023-05-23T00:07:51;100676.00;;;26.19;45.73
16613;BME280;8419;52.358;9.752;2023-05-23T00:10:37;100676.00;;;26.14;45.83
16613;BME280;8419;52.358;9.752;2023-05-23T00:13:22;100674.00;;;26.17;45.80
16613;BME280;8419;52.358;9.752;2023-05-23T00:16:09;100679.00;;;26.41;45.24
16613;BME280;8419;52.358;9.752;2023-05-23T00:18:54;100676.00;;;26.48;45.11
16613;BME280;8419;52.358;9.752;2023-05-23T00:21:41;100672.00;;;26.13;45.84
16613;BME280;8419;52.358;9.752;2023-05-23T00:24:28;100673.00;;;26.22;45.69
16613;BME280;8419;52.358;9.752;2023-05-23T00:27:13;100677.00;;;26.20;45.77
16613;BME280;8419;52.358;9.752;2023-05-23T00:29:59;100673.00;;;26.24;45.61
16613;BME280;8419;52.358;9.752;2023-05-23T00:32:44;100677.00;;;26.23;45.62
16613;BME280;8419;52.358;9.752;2023-05-23T00:35:31;100676.00;;;26.09;45.90
16613;BME280;8419;52.358;9.752;2023-05-23T00:38:16;100669.00;;;26.19;45.80
16613;BME280;8419;52.358;9.752;2023-05-23T00:41:02;100674.00;;;26.29;45.40
16613;BME280;8419;52.358;9.752;2023-05-23T00:43:47;100674.00;;;26.05;45.91
16613;BME280;8419;52.358;9.752;2023-05-23T00:46:33;100675.00;;;25.96;46.16
16613;BME280;8419;52.358;9.752;2023-05-23T00:49:19;100675.00;;;25.94;46.19
16613;BME280;8419;52.358;9.752;2023-05-23T00:52:05;100679.00;;;25.95;46.16
16613;BME280;8419;52.358;9.752;2023-05-23T00:54:51;100670.00;;;26.09;45.79
16613;BME280;8419;52.358;9.752;2023-05-23T00:57:37;100668.00;;;25.95;46.00
16613;BME280;8419;52.358;9.752;2023-05-23T01:00:25;100671.00;;;25.74;46.51
16613;BME280;8419;52.358;9.752;2023-05-23T01:03:11;100675.00;;;25.89;46.21
16613;BME280;8419;52.358;9.752;2023-05-23T01:06:01;100666.00;;;25.61;46.88
16613;BME280;8419;52.358;9.752;2023-05-23T01:08:47;100673.00;;;25.56;46.90
16613;BME280;8419;52.358;9.752;2023-05-23T01:11:35;100675.00;;;25.60;46.68
16613;BME280;8419;52.358;9.752;2023-05-23T01:14:31;100675.00;;;25.41;47.10
16613;BME280;8419;52.358;9.752;2023-05-23T01:17:23;100691.00;;;25.47;46.86
16613;BME280;8419;52.358;9.752;2023-05-23T01:20:12;100683.00;;;25.35;46.83
16613;BME280;8419;52.358;9.752;2023-05-23T01:23:16;100697.00;;;25.44;46.34
16613;BME280;8419;52.358;9.752;2023-05-23T01:26:19;100694.00;;;25.44;46.04
16613;BME280;8419;52.358;9.752;2023-05-23T01:29:12;100694.00;;;24.93;46.74
16613;BME280;8419;52.358;9.752;2023-05-23T01:32:00;100688.00;;;24.82;46.70
16613;BME280;8419;52.358;9.752;2023-05-23T01:34:46;100698.00;;;25.00;46.05
16613;BME280;8419;52.358;9.752;2023-05-23T01:37:33;100688.00;;;24.93;46.05
16613;BME280;8419;52.358;9.752;2023-05-23T01:40:20;100691.00;;;24.82;46.24
16613;BME280;8419;52.358;9.752;2023-05-23T01:43:06;100697.00;;;24.57;46.67
16613;BME280;8419;52.358;9.752;2023-05-23T01:45:53;100699.00;;;24.58;46.62
16613;BME280;8419;52.358;9.752;2023-05-23T01:48:40;100703.00;;;24.44;46.79
16613;BME280;8419;52.358;9.752;2023-05-23T01:51:27;100696.00;;;24.49;46.48
16613;BME280;8419;52.358;9.752;2023-05-23T01:54:16;100704.00;;;24.25;46.93
16613;BME280;8419;52.358;9.752;2023-05-23T01:57:04;100711.00;;;24.32;46.67
16613;BME280;8419;52.358;9.752;2023-05-23T01:59:50;100708.00;;;24.08;47.08
16613;BME280;8419;52.358;9.752;2023-05-23T02:02:36;100712.00;;;24.27;46.57
16613;BME280;8419;52.358;9.752;2023-05-23T02:05:21;100710.00;;;24.03;46.96
16613;BME280;8419;52.358;9.752;2023-05-23T02:08:07;100717.00;;;23.94;47.19
16613;BME280;8419;52.358;9.752;2023-05-23T02:10:53;100726.00;;;24.08;46.87
16613;BME280;8419;52.358;9.752;2023-05-23T02:13:38;100719.00;;;24.13;46.64
16613;BME280;8419;52.358;9.752;2023-05-23T02:16:24;100716.00;;;24.32;46.15
16613;BME280;8419;52.358;9.752;2023-05-23T02:19:09;100722.00;;;24.41;45.86
16613;BME280;8419;52.358;9.752;2023-05-23T02:21:55;100725.00;;;24.28;46.05
16613;BME280;8419;52.358;9.752;2023-05-23T02:24:40;100722.00;;;23.97;46.65
16613;BME280;8419;52.358;9.752;2023-05-23T02:27:26;100722.00;;;23.80;46.95
16613;BME280;8419;52.358;9.752;2023-05-23T02:30:13;100721.00;;;23.66;47.13
16613;BME280;8419;52.358;9.752;2023-05-23T02:32:59;100723.00;;;23.64;47.10
16613;BME280;8419;52.358;9.752;2023-05-23T02:35:48;100728.00;;;23.61;47.08
16613;BME280;8419;52.358;9.752;2023-05-23T02:38:35;100736.00;;;23.92;46.20
16613;BME280;8419;52.358;9.752;2023-05-23T02:41:20;100730.00;;;23.97;45.99
16613;BME280;8419;52.358;9.752;2023-05-23T02:44:07;100724.00;;;23.92;45.97
16613;BME280;8419;52.358;9.752;2023-05-23T02:46:53;100747.00;;;23.96;45.76
16613;BME280;8419;52.358;9.752;2023-05-23T02:49:38;100736.00;;;23.60;46.54
16613;BME280;8419;52.358;9.752;2023-05-23T02:52:24;100731.00;;;23.52;46.63
16613;BME280;8419;52.358;9.752;2023-05-23T02:55:09;100738.00;;;23.47;46.65
16613;BME280;8419;52.358;9.752;2023-05-23T02:57:55;100736.00;;;23.43;46.65
16613;BME280;8419;52.358;9.752;2023-05-23T03:00:41;100731.00;;;23.41;46.57
16613;BME280;8419;52.358;9.752;2023-05-23T03:03:27;100736.00;;;23.47;46.42
16613;BME280;8419;52.358;9.752;2023-05-23T03:06:13;100734.00;;;23.40;46.56
16613;BME280;8419;52.358;9.752;2023-05-23T03:09:01;100729.00;;;23.36;46.62
16613;BME280;8419;52.358;9.752;2023-05-23T03:11:47;100733.00;;;23.39;46.50
16613;BME280;8419;52.358;9.752;2023-05-23T03:14:34;100735.00;;;23.41;46.50
16613;BME280;8419;52.358;9.752;2023-05-23T03:17:20;100735.00;;;23.66;45.83
16613;BME280;8419;52.358;9.752;2023-05-23T03:20:06;100732.00;;;23.58;46.01
16613;BME280;8419;52.358;9.752;2023-05-23T03:22:54;100732.00;;;23.42;46.46
16613;BME280;8419;52.358;9.752;2023-05-23T03:25:39;100731.00;;;23.34;46.70
16613;BME280;8419;52.358;9.752;2023-05-23T03:28:26;100729.00;;;23.40;46.55
16613;BME280;8419;52.358;9.752;2023-05-23T03:31:12;100729.00;;;23.42;46.50
16613;BME280;8419;52.358;9.752;2023-05-23T03:33:57;100720.00;;;23.54;46.25
16613;BME280;8419;52.358;9.752;2023-05-23T03:36:43;100719.00;;;23.44;46.50
16613;BME280;8419;52.358;9.752;2023-05-23T03:39:28;100724.00;;;23.61;46.07
16613;BME280;8419;52.358;9.752;2023-05-23T03:42:14;100720.00;;;23.62;46.08
16613;BME280;8419;52.358;9.752;2023-05-23T03:45:00;100720.00;;;23.67;45.90
16613;BME280;8419;52.358;9.752;2023-05-23T03:47:46;100715.00;;;23.67;45.90
16613;BME280;8419;52.358;9.752;2023-05-23T03:50:31;100723.00;;;23.65;45.94
16613;BME280;8419;52.358;9.752;2023-05-23T03:53:17;100727.00;;;23.48;46.32
16613;BME280;8419;52.358;9.752;2023-05-23T03:56:03;100721.00;;;23.48;46.36
16613;BME280;8419;52.358;9.752;2023-05-23T03:58:48;100724.00;;;23.33;46.75
16613;BME280;8419;52.358;9.752;2023-05-23T04:01:34;100721.00;;;23.39;46.73
16613;BME280;8419;52.358;9.752;2023-05-23T04:04:20;100723.00;;;23.43;46.61
16613;BME280;8419;52.358;9.752;2023-05-23T04:07:06;100726.00;;;23.45;46.59
16613;BME280;8419;52.358;9.752;2023-05-23T04:09:53;100715.00;;;23.48;46.49
16613;BME280;8419;52.358;9.752;2023-05-23T04:12:39;100715.00;;;23.48;46.50
16613;BME280;8419;52.358;9.752;2023-05-23T04:15:25;100731.00;;;23.48;46.46
16613;BME280;8419;52.358;9.752;2023-05-23T04:18:11;100730.00;;;23.47;46.46
16613;BME280;8419;52.358;9.752;2023-05-23T04:20:59;100728.00;;;23.49;46.40
16613;BME280;8419;52.358;9.752;2023-05-23T04:23:44;100736.00;;;23.46;46.41
16613;BME280;8419;52.358;9.752;2023-05-23T04:26:31;100731.00;;;23.46;46.44
16613;BME280;8419;52.358;9.752;2023-05-23T04:29:17;100740.00;;;23.46;46.39
16613;BME280;8419;52.358;9.752;2023-05-23T04:32:04;100738.00;;;23.45;46.39
16613;BME280;8419;52.358;9.752;2023-05-23T04:34:50;100737.00;;;23.48;46.25
16613;BME280;8419;52.358;9.752;2023-05-23T04:37:36;100738.00;;;23.70;45.77
16613;BME280;8419;52.358;9.752;2023-05-23T04:40:22;100736.00;;;23.47;46.19
16613;BME280;8419;52.358;9.752;2023-05-23T04:43:07;100738.00;;;23.44;46.29
16613;BME280;8419;52.358;9.752;2023-05-23T04:45:54;100737.00;;;23.45;46.37
16613;BME280;8419;52.358;9.752;2023-05-23T04:48:41;100731.00;;;23.48;46.22
16613;BME280;8419;52.358;9.752;2023-05-23T04:51:28;100746.00;;;23.47;46.21
16613;BME280;8419;52.358;9.752;2023-05-23T04:54:14;100733.00;;;23.39;46.34
16613;BME280;8419;52.358;9.752;2023-05-23T04:57:01;100733.00;;;23.36;46.42
16613;BME280;8419;52.358;9.752;2023-05-23T04:59:47;100735.00;;;23.37;46.38
16613;BME280;8419;52.358;9.752;2023-05-23T05:02:32;100744.00;;;23.29;46.54
16613;BME280;8419;52.358;9.752;2023-05-23T05:05:20;100739.00;;;23.46;46.08
16613;BME280;8419;52.358;9.752;2023-05-23T05:08:06;100741.00;;;23.32;46.49
16613;BME280;8419;52.358;9.752;2023-05-23T05:10:52;100732.00;;;23.27;46.62
16613;BME280;8419;52.358;9.752;2023-05-23T05:13:38;100731.00;;;23.33;46.55
16613;BME280;8419;52.358;9.752;2023-05-23T05:16:23;100729.00;;;23.36;46.52
16613;BME280;8419;52.358;9.752;2023-05-23T05:19:09;100742.00;;;23.28;46.69
16613;BME280;8419;52.358;9.752;2023-05-23T05:21:54;100739.00;;;23.31;46.71
16613;BME280;8419;52.358;9.752;2023-05-23T05:24:44;100750.00;;;23.23;46.87
16613;BME280;8419;52.358;9.752;2023-05-23T05:27:30;100745.00;;;23.18;46.93
16613;BME280;8419;52.358;9.752;2023-05-23T05:30:16;100743.00;;;23.24;46.83
16613;BME280;8419;52.358;9.752;2023-05-23T05:33:01;100743.00;;;23.13;47.04
16613;BME280;8419;52.358;9.752;2023-05-23T05:35:48;100747.00;;;23.06;47.18
16613;BME280;8419;52.358;9.752;2023-05-23T05:38:35;100746.00;;;23.10;47.14
16613;BME280;8419;52.358;9.752;2023-05-23T05:41:20;100737.00;;;23.06;47.32
16613;BME280;8419;52.358;9.752;2023-05-23T05:44:09;100745.00;;;23.04;47.28
16613;BME280;8419;52.358;9.752;2023-05-23T05:46:54;100736.00;;;23.05;47.34
16613;BME280;8419;52.358;9.752;2023-05-23T05:49:40;100745.00;;;22.94;47.62
16613;BME280;8419;52.358;9.752;2023-05-23T05:52:26;100747.00;;;23.04;47.53
16613;BME280;8419;52.358;9.752;2023-05-23T05:55:11;100736.00;;;23.04;47.55
16613;BME280;8419;52.358;9.752;2023-05-23T05:57:57;100743.00;;;23.05;47.58
16613;BME280;8419;52.358;9.752;2023-05-23T06:00:42;100741.00;;;23.00;47.69
16613;BME280;8419;52.358;9.752;2023-05-23T06:03:29;100750.00;;;23.14;47.43
16613;BME280;8419;52.358;9.752;2023-05-23T06:06:22;100748.00;;;23.22;47.22
16613;BME280;8419;52.358;9.752;2023-05-23T06:09:07;100750.00;;;23.22;47.27
16613;BME280;8419;52.358;9.752;2023-05-23T06:11:52;100759.00;;;22.93;48.02
16613;BME280;8419;52.358;9.752;2023-05-23T06:14:38;100753.00;;;22.85;48.24
16613;BME280;8419;52.358;9.752;2023-05-23T06:17:23;100753.00;;;22.91;48.21
16613;BME280;8419;52.358;9.752;2023-05-23T06:20:11;100758.00;;;22.90;48.36
16613;BME280;8419;52.358;9.752;2023-05-23T06:22:56;100752.00;;;23.13;47.94
16613;BME280;8419;52.358;9.752;2023-05-23T06:25:42;100751.00;;;23.32;47.45
16613;BME280;8419;52.358;9.752;2023-05-23T06:28:27;100748.00;;;23.14;47.97
16613;BME280;8419;52.358;9.752;2023-05-23T06:31:13;100751.00;;;23.16;47.98
16613;BME280;8419;52.358;9.752;2023-05-23T06:33:58;100757.00;;;23.41;47.50
16613;BME280;8419;52.358;9.752;2023-05-23T06:36:47;100760.00;;;23.44;47.39
16613;BME280;8419;52.358;9.752;2023-05-23T06:39:35;100757.00;;;23.18;48.01
16613;BME280;8419;52.358;9.752;2023-05-23T06:42:20;100760.00;;;23.10;48.33
16613;BME280;8419;52.358;9.752;2023-05-23T06:45:08;100763.00;;;23.28;48.00
16613;BME280;8419;52.358;9.752;2023-05-23T06:47:53;100761.00;;;23.27;47.94
16613;BME280;8419;52.358;9.752;2023-05-23T06:50:39;100763.00;;;23.31;47.74
16613;BME280;8419;52.358;9.752;2023-05-23T06:53:24;100774.00;;;23.25;47.86
16613;BME280;8419;52.358;9.752;2023-05-23T06:56:10;100783.00;;;22.93;48.72
16613;BME280;8419;52.358;9.752;2023-05-23T06:58:55;100781.00;;;22.73;49.20
16613;BME280;8419;52.358;9.752;2023-05-23T07:01:40;100787.00;;;22.71;49.31
16613;BME280;8419;52.358;9.752;2023-05-23T07:04:26;100789.00;;;22.72;49.29
16613;BME280;8419;52.358;9.752;2023-05-23T07:07:11;100789.00;;;22.73;49.18
16613;BME280;8419;52.358;9.752;2023-05-23T07:09:57;100790.00;;;22.83;48.99
16613;BME280;8419;52.358;9.752;2023-05-23T07:12:42;100790.00;;;22.83;49.00
16613;BME280;8419;52.358;9.752;2023-05-23T07:15:27;100789.00;;;22.84;48.87
16613;BME280;8419;52.358;9.752;2023-05-23T07:18:13;100790.00;;;22.85;48.81
16613;BME280;8419;52.358;9.752;2023-05-23T07:20:58;100793.00;;;22.73;48.89
16613;BME280;8419;52.358;9.752;2023-05-23T07:23:44;100798.00;;;22.71;49.04
16613;BME280;8419;52.358;9.752;2023-05-23T07:26:29;100791.00;;;22.70;49.14
16613;BME280;8419;52.358;9.752;2023-05-23T07:29:15;100796.00;;;22.70;49.14
16613;BME280;8419;52.358;9.752;2023-05-23T07:32:00;100799.00;;;22.64;49.29
16613;BME280;8419;52.358;9.752;2023-05-23T07:34:46;100810.00;;;23.01;48.45
16613;BME280;8419;52.358;9.752;2023-05-23T07:37:31;100800.00;;;22.95;48.58
16613;BME280;8419;52.358;9.752;2023-05-23T07:40:17;100820.00;;;22.69;49.11
16613;BME280;8419;52.358;9.752;2023-05-23T07:43:02;100815.00;;;22.59;49.39
16613;BME280;8419;52.358;9.752;2023-05-23T07:45:48;100812.00;;;22.69;49.27
16613;BME280;8419;52.358;9.752;2023-05-23T07:48:33;100821.00;;;22.77;49.13
16613;BME280;8419;52.358;9.752;2023-05-23T07:51:19;100827.00;;;22.77;48.93
16613;BME280;8419;52.358;9.752;2023-05-23T07:54:06;100827.00;;;22.63;48.81
16613;BME280;8419;52.358;9.752;2023-05-23T07:56:52;100832.00;;;22.39;49.22
16613;BME280;8419;52.358;9.752;2023-05-23T07:59:37;100840.00;;;22.29;49.29
16613;BME280;8419;52.358;9.752;2023-05-23T08:02:24;100845.00;;;22.26;49.23
16613;BME280;8419;52.358;9.752;2023-05-23T08:05:10;100845.00;;;22.10;49.47
16613;BME280;8419;52.358;9.752;2023-05-23T08:07:56;100853.00;;;21.92;49.74
16613;BME280;8419;52.358;9.752;2023-05-23T08:10:42;100845.00;;;21.74;49.98
16613;BME280;8419;52.358;9.752;2023-05-23T08:13:29;100863.00;;;22.04;49.15
16613;BME280;8419;52.358;9.752;2023-05-23T08:16:15;100871.00;;;22.09;49.07
16613;BME280;8419;52.358;9.752;2023-05-23T08:19:02;100868.00;;;21.96;49.32
16613;BME280;8419;52.358;9.752;2023-05-23T08:21:49;100865.00;;;22.04;49.33
16613;BME280;8419;52.358;9.752;2023-05-23T08:24:37;100874.00;;;21.98;49.37
16613;BME280;8419;52.358;9.752;2023-05-23T08:27:26;100875.00;;;21.95;49.41
16613;BME280;8419;52.358;9.752;2023-05-23T08:30:13;100875.00;;;21.89;49.61
16613;BME280;8419;52.358;9.752;2023-05-23T08:32:59;100878.00;;;21.91;49.59
16613;BME280;8419;52.358;9.752;2023-05-23T08:35:48;100880.00;;;21.84;49.51
16613;BME280;8419;52.358;9.752;2023-05-23T08:38:34;100888.00;;;21.85;49.50
16613;BME280;8419;52.358;9.752;2023-05-23T08:41:51;100902.00;;;21.89;49.38
16613;BME280;8419;52.358;9.752;2023-05-23T08:44:41;100894.00;;;21.65;49.77
16613;BME280;8419;52.358;9.752;2023-05-23T08:47:28;100902.00;;;21.34;50.43
16613;BME280;8419;52.358;9.752;2023-05-23T08:50:18;100897.00;;;21.31;50.54
16613;BME280;8419;52.358;9.752;2023-05-23T08:53:05;100908.00;;;21.19;50.83
16613;BME280;8419;52.358;9.752;2023-05-23T08:55:56;100911.00;;;21.43;50.27
16613;BME280;8419;52.358;9.752;2023-05-23T08:58:50;100919.00;;;21.14;50.98
16613;BME280;8419;52.358;9.752;2023-05-23T09:01:39;100919.00;;;21.15;50.86
16613;BME280;8419;52.358;9.752;2023-05-23T09:04:26;100917.00;;;21.08;50.89
16613;BME280;8419;52.358;9.752;2023-05-23T09:07:15;100927.00;;;21.21;50.51
16613;BME280;8419;52.358;9.752;2023-05-23T09:10:05;100936.00;;;21.07;50.76
16613;BME280;8419;52.358;9.752;2023-05-23T09:12:51;100938.00;;;21.27;50.07
16613;BME280;8419;52.358;9.752;2023-05-23T09:15:36;100951.00;;;21.31;50.08
16613;BME280;8419;52.358;9.752;2023-05-23T09:18:24;100961.00;;;21.34;50.00
16613;BME280;8419;52.358;9.752;2023-05-23T09:21:12;100966.00;;;20.94;50.77
16613;BME280;8419;52.358;9.752;2023-05-23T09:23:58;100973.00;;;20.90;50.76
16613;BME280;8419;52.358;9.752;2023-05-23T09:26:46;100970.00;;;20.88;50.97
16613;BME280;8419;52.358;9.752;2023-05-23T09:29:32;100981.00;;;21.05;50.63
16613;BME280;8419;52.358;9.752;2023-05-23T09:32:20;100982.00;;;21.15;50.40
16613;BME280;8419;52.358;9.752;2023-05-23T09:35:09;100987.00;;;21.18;50.21
16613;BME280;8419;52.358;9.752;2023-05-23T09:37:58;100983.00;;;21.24;50.00
16613;BME280;8419;52.358;9.752;2023-05-23T09:40:45;100993.00;;;21.18;49.85
16613;BME280;8419;52.358;9.752;2023-05-23T09:43:30;100987.00;;;21.21;49.68
16613;BME280;8419;52.358;9.752;2023-05-23T09:49:14;101004.00;;;21.33;49.37
16613;BME280;8419;52.358;9.752;2023-05-23T09:52:01;101008.00;;;21.37;49.03
16613;BME280;8419;52.358;9.752;2023-05-23T09:54:46;101018.00;;;21.30;49.13
16613;BME280;8419;52.358;9.752;2023-05-23T09:57:34;101012.00;;;21.29;49.07
16613;BME280;8419;52.358;9.752;2023-05-23T10:00:23;101016.00;;;21.32;49.12
16613;BME280;8419;52.358;9.752;2023-05-23T10:03:10;101026.00;;;21.25;49.14
16613;BME280;8419;52.358;9.752;2023-05-23T10:06:04;101023.00;;;21.40;48.98
16613;BME280;8419;52.358;9.752;2023-05-23T10:08:58;101043.00;;;21.37;48.68
16613;BME280;8419;52.358;9.752;2023-05-23T10:15:21;101044.00;;;21.36;48.60
16613;BME280;8419;52.358;9.752;2023-05-23T10:18:14;101047.00;;;21.34;48.49
16613;BME280;8419;52.358;9.752;2023-05-23T10:21:08;101045.00;;;21.59;47.62
16613;BME280;8419;52.358;9.752;2023-05-23T10:23:55;101046.00;;;21.35;48.03
16613;BME280;8419;52.358;9.752;2023-05-23T10:26:45;101053.00;;;21.28;48.29
16613;BME280;8419;52.358;9.752;2023-05-23T10:29:33;101055.00;;;21.26;48.28
16613;BME280;8419;52.358;9.752;2023-05-23T10:32:19;101061.00;;;21.22;47.92
16613;BME280;8419;52.358;9.752;2023-05-23T10:35:11;101073.00;;;21.18;47.95
16613;BME280;8419;52.358;9.752;2023-05-23T10:38:03;101057.00;;;21.12;48.03
16613;BME280;8419;52.358;9.752;2023-05-23T10:40:57;101064.00;;;21.29;47.79
16613;BME280;8419;52.358;9.752;2023-05-23T10:43:50;101069.00;;;21.17;47.90
16613;BME280;8419;52.358;9.752;2023-05-23T10:46:52;101083.00;;;21.14;48.02
16613;BME280;8419;52.358;9.752;2023-05-23T10:49:41;101082.00;;;21.10;47.93
16613;BME280;8419;52.358;9.752;2023-05-23T10:52:28;101086.00;;;21.05;47.92
16613;BME280;8419;52.358;9.752;2023-05-23T10:55:31;101095.00;;;21.45;46.77
16613;BME280;8419;52.358;9.752;2023-05-23T10:58:18;101102.00;;;21.09;47.23
16613;BME280;8419;52.358;9.752;2023-05-23T11:01:12;101112.00;;;21.03;47.43
16613;BME280;8419;52.358;9.752;2023-05-23T11:04:04;101100.00;;;21.07;47.26
16613;BME280;8419;52.358;9.752;2023-05-23T11:06:53;101109.00;;;20.97;47.47
16613;BME280;8419;52.358;9.752;2023-05-23T11:10:07;101108.00;;;20.91;47.22
16613;BME280;8419;52.358;9.752;2023-05-23T11:13:05;101129.00;;;20.90;47.15
16613;BME280;8419;52.358;9.752;2023-05-23T11:15:51;101120.00;;;20.82;47.08
16613;BME280;8419;52.358;9.752;2023-05-23T11:18:37;101128.00;;;20.77;46.98
16613;BME280;8419;52.358;9.752;2023-05-23T11:21:24;101136.00;;;21.03;46.64
16613;BME280;8419;52.358;9.752;2023-05-23T11:24:10;101130.00;;;20.94;46.46
16613;BME280;8419;52.358;9.752;2023-05-23T11:26:57;101135.00;;;20.88;46.56
16613;BME280;8419;52.358;9.752;2023-05-23T11:29:45;101144.00;;;20.77;46.64
16613;BME280;8419;52.358;9.752;2023-05-23T11:32:41;101140.00;;;20.84;46.54
16613;BME280;8419;52.358;9.752;2023-05-23T11:35:29;101148.00;;;20.95;46.48
16613;BME280;8419;52.358;9.752;2023-05-23T11:38:15;101146.00;;;21.29;45.64
16613;BME280;8419;52.358;9.752;2023-05-23T11:41:01;101148.00;;;21.34;45.09
16613;BME280;8419;52.358;9.752;2023-05-23T11:43:50;101149.00;;;21.28;45.09
16613;BME280;8419;52.358;9.752;2023-05-23T11:46:36;101154.00;;;21.25;45.18
16613;BME280;8419;52.358;9.752;2023-05-23T11:49:21;101147.00;;;21.46;44.86
16613;BME280;8419;52.358;9.752;2023-05-23T11:52:12;101153.00;;;21.63;44.54
16613;BME280;8419;52.358;9.752;2023-05-23T11:55:00;101150.00;;;21.54;44.30
16613;BME280;8419;52.358;9.752;2023-05-23T11:57:45;101158.00;;;21.33;44.64
16613;BME280;8419;52.358;9.752;2023-05-23T12:00:31;101160.00;;;21.28;44.80
16613;BME280;8419;52.358;9.752;2023-05-23T12:03:16;101167.00;;;21.58;44.21
16613;BME280;8419;52.358;9.752;2023-05-23T12:06:02;101164.00;;;21.85;43.83
16613;BME280;8419;52.358;9.752;2023-05-23T12:08:48;101171.00;;;22.13;43.27
16613;BME280;8419;52.358;9.752;2023-05-23T12:11:35;101163.00;;;22.48;42.56
16613;BME280;8419;52.358;9.752;2023-05-23T12:14:28;101164.00;;;22.95;41.37
16613;BME280;8419;52.358;9.752;2023-05-23T12:17:14;101169.00;;;23.40;40.57
16613;BME280;8419;52.358;9.752;2023-05-23T12:20:00;101173.00;;;23.48;39.93
16613;BME280;8419;52.358;9.752;2023-05-23T12:22:45;101177.00;;;23.74;38.76
16613;BME280;8419;52.358;9.752;2023-05-23T12:25:38;101162.00;;;23.34;38.40
16613;BME280;8419;52.358;9.752;2023-05-23T12:28:35;101166.00;;;23.47;38.15
16613;BME280;8419;52.358;9.752;2023-05-23T12:31:21;101183.00;;;23.38;37.99
16613;BME280;8419;52.358;9.752;2023-05-23T12:34:06;101179.00;;;22.82;38.31
16613;BME280;8419;52.358;9.752;2023-05-23T12:36:54;101171.00;;;22.84;38.45
16613;BME280;8419;52.358;9.752;2023-05-23T12:39:43;101174.00;;;22.74;38.43
16613;BME280;8419;52.358;9.752;2023-05-23T12:45:59;101166.00;;;23.02;37.92
16613;BME280;8419;52.358;9.752;2023-05-23T12:48:44;101179.00;;;23.27;37.78
16613;BME280;8419;52.358;9.752;2023-05-23T12:51:31;101179.00;;;23.59;36.61
16613;BME280;8419;52.358;9.752;2023-05-23T12:54:17;101181.00;;;24.07;35.77
16613;BME280;8419;52.358;9.752;2023-05-23T12:57:03;101179.00;;;24.35;35.54
16613;BME280;8419;52.358;9.752;2023-05-23T12:59:51;101183.00;;;25.44;33.49
16613;BME280;8419;52.358;9.752;2023-05-23T13:02:39;101185.00;;;26.16;32.38
16613;BME280;8419;52.358;9.752;2023-05-23T13:05:25;101173.00;;;26.12;31.92
16613;BME280;8419;52.358;9.752;2023-05-23T13:08:11;101178.00;;;25.54;32.18
16613;BME280;8419;52.358;9.752;2023-05-23T13:10:57;101171.00;;;25.11;32.51
16613;BME280;8419;52.358;9.752;2023-05-23T13:13:42;101184.00;;;25.06;32.62
16613;BME280;8419;52.358;9.752;2023-05-23T13:16:27;101182.00;;;24.82;32.95
16613;BME280;8419;52.358;9.752;2023-05-23T13:19:13;101199.00;;;25.06;32.53
16613;BME280;8419;52.358;9.752;2023-05-23T13:21:58;101192.00;;;25.01;32.40
16613;BME280;8419;52.358;9.752;2023-05-23T13:24:45;101190.00;;;25.72;31.61
16613;BME280;8419;52.358;9.752;2023-05-23T13:27:30;101193.00;;;25.95;31.17
16613;BME280;8419;52.358;9.752;2023-05-23T13:30:16;101203.00;;;25.70;31.24
16613;BME280;8419;52.358;9.752;2023-05-23T13:33:03;101199.00;;;25.55;31.61
16613;BME280;8419;52.358;9.752;2023-05-23T13:35:52;101212.00;;;25.58;31.41
16613;BME280;8419;52.358;9.752;2023-05-23T13:38:38;101205.00;;;26.38;30.24
16613;BME280;8419;52.358;9.752;2023-05-23T13:41:23;101212.00;;;27.38;28.84
16613;BME280;8419;52.358;9.752;2023-05-23T13:44:09;101217.00;;;27.52;28.72
16613;BME280;8419;52.358;9.752;2023-05-23T13:46:56;101221.00;;;26.94;28.97
16613;BME280;8419;52.358;9.752;2023-05-23T13:49:42;101216.00;;;26.86;29.20
16613;BME280;8419;52.358;9.752;2023-05-23T13:52:28;101213.00;;;27.40;28.87
16613;BME280;8419;52.358;9.752;2023-05-23T13:55:14;101217.00;;;26.84;28.59
16613;BME280;8419;52.358;9.752;2023-05-23T13:58:00;101227.00;;;26.22;29.03
16613;BME280;8419;52.358;9.752;2023-05-23T14:00:47;101224.00;;;26.13;28.54
16613;BME280;8419;52.358;9.752;2023-05-23T14:03:32;101235.00;;;26.55;27.94
16613;BME280;8419;52.358;9.752;2023-05-23T14:06:19;101236.00;;;26.99;27.58
16613;BME280;8419;52.358;9.752;2023-05-23T14:09:04;101236.00;;;27.83;26.44
16613;BME280;8419;52.358;9.752;2023-05-23T14:11:50;101253.00;;;28.61;25.46
16613;BME280;8419;52.358;9.752;2023-05-23T14:14:36;101241.00;;;29.39;25.27
16613;BME280;8419;52.358;9.752;2023-05-23T14:17:22;101243.00;;;29.73;24.72
16613;BME280;8419;52.358;9.752;2023-05-23T14:20:08;101244.00;;;28.69;24.92
16613;BME280;8419;52.358;9.752;2023-05-23T14:22:54;101248.00;;;27.48;26.04
16613;BME280;8419;52.358;9.752;2023-05-23T14:25:44;101249.00;;;26.63;27.29
16613;BME280;8419;52.358;9.752;2023-05-23T14:28:30;101247.00;;;26.34;27.81
16613;BME280;8419;52.358;9.752;2023-05-23T14:31:15;101247.00;;;26.19;28.11
16613;BME280;8419;52.358;9.752;2023-05-23T14:34:01;101252.00;;;26.27;27.86
16613;BME280;8419;52.358;9.752;2023-05-23T14:36:46;101248.00;;;26.38;27.79
16613;BME280;8419;52.358;9.752;2023-05-23T14:39:31;101257.00;;;26.69;27.36
16613;BME280;8419;52.358;9.752;2023-05-23T14:42:17;101251.00;;;26.98;26.71
16613;BME280;8419;52.358;9.752;2023-05-23T14:45:04;101254.00;;;26.88;26.70
16613;BME280;8419;52.358;9.752;2023-05-23T14:47:51;101245.00;;;26.42;26.70
16613;BME280;8419;52.358;9.752;2023-05-23T14:50:36;101250.00;;;25.95;27.32
16613;BME280;8419;52.358;9.752;2023-05-23T14:53:22;101254.00;;;25.60;27.58
16613;BME280;8419;52.358;9.752;2023-05-23T14:56:10;101257.00;;;25.41;27.73